»·PEaware :: N13W KSMO-KPSP

N13W :: KSMO-KPSP

FLIGHT INFORMATION

Flight Status: Arrived
Operator: Privately registered:
United States
More flights under this callsign
Pilot: Will N. (25416)
Aircraft: SOCATA TBM-900
(TBM9)
More flights by this aircraft type
Origin: KSMO Santa Monica Mun
United States
Destination: KPSP Palm Springs Intl
United States
More flights between these airports :: More routes between these airports
Route: SMO VNY V186 NIKKL V64 TRM
File this flight plan on PilotEdge
Remarks:
Altitude:
(Current/Filed)
9,000ft
Speed:
(Current/Filed)
250kts
Departed: 22-Dec-20 09:26 PM
Arrived: 22-Dec-20 10:02 PM
Distance/Time
Traveled:
97nm/0:36
Distance/Time
To Go:
Arrived

Flight Plot

Page will automatically refresh every two minutes.

Flight plan parsing failed; only flown route is shown


Map Options




Map Legend


Flown Route
Filed Route
Departure Airport
Arrival Airport
Navaid (VOR, NDB)
Fix

Horizontal Profiles

Position Reports

Time Latitude Longitude Heading Altitude Ground
Speed
22-Dec-20 21:07 34.016205 -118.452499 45 143ft 0kts
22-Dec-20 21:08 34.016205 -118.452499 45 143ft 0kts
22-Dec-20 21:10 34.016205 -118.452499 45 143ft 0kts
22-Dec-20 21:11 34.016205 -118.452499 45 143ft 0kts
22-Dec-20 21:11 34.016205 -118.452499 45 143ft 0kts
22-Dec-20 21:12 34.016205 -118.452499 45 143ft 0kts
22-Dec-20 21:13 34.016205 -118.452499 45 143ft 0kts
22-Dec-20 21:14 34.016205 -118.452499 45 143ft 0kts
22-Dec-20 21:15 34.016205 -118.452499 45 143ft 0kts
22-Dec-20 21:16 34.016205 -118.452499 45 143ft 0kts
22-Dec-20 21:17 34.016205 -118.452499 45 143ft 0kts
22-Dec-20 21:18 34.016205 -118.452499 45 143ft 0kts
22-Dec-20 21:19 34.016205 -118.452499 45 143ft 0kts
22-Dec-20 21:20 34.016205 -118.452499 45 143ft 0kts
22-Dec-20 21:21 34.016264 -118.452132 80 143ft 9kts
22-Dec-20 21:22 34.018732 -118.448986 45 161ft 12kts
22-Dec-20 21:23 34.019568 -118.447750 128 166ft 0kts
22-Dec-20 21:24 34.019003 -118.447555 222 165ft 0kts
22-Dec-20 21:25 34.000944 -118.477760 251 1196ft 147kts
22-Dec-20 21:26 34.001937 -118.533603 277 3567ft 143kts
22-Dec-20 21:27 34.006158 -118.589880 303 5002ft 188kts
22-Dec-20 21:28 34.052729 -118.606983 359 6442ft 185kts
22-Dec-20 21:29 34.084602 -118.555852 62 7932ft 206kts
22-Dec-20 21:30 34.112929 -118.485965 62 7987ft 239kts
22-Dec-20 21:31 34.135968 -118.411005 81 8029ft 241kts
22-Dec-20 21:32 34.140043 -118.332877 82 8958ft 233kts
22-Dec-20 21:33 34.144640 -118.251035 81 8978ft 249kts
22-Dec-20 21:34 34.125319 -118.168864 107 8981ft 258kts
22-Dec-20 21:35 34.100235 -118.086923 107 8988ft 259kts
22-Dec-20 21:36 34.075280 -118.005645 107 8990ft 259kts
22-Dec-20 21:37 34.050041 -117.923645 107 8988ft 260kts
22-Dec-20 21:38 34.024494 -117.840886 107 8988ft 264kts
22-Dec-20 21:39 33.998464 -117.757208 111 8984ft 267kts
22-Dec-20 21:40 33.969360 -117.674451 111 8984ft 268kts
22-Dec-20 21:41 33.940033 -117.591312 112 8983ft 269kts
22-Dec-20 21:42 33.901663 -117.515894 146 8990ft 266kts
22-Dec-20 21:43 33.838351 -117.462910 146 8979ft 267kts
22-Dec-20 21:44 33.772875 -117.408095 145 8981ft 267kts
22-Dec-20 21:45 33.728119 -117.338279 92 8993ft 260kts
22-Dec-20 21:46 33.721167 -117.251823 92 8986ft 260kts
22-Dec-20 21:47 33.714108 -117.164719 92 8988ft 260kts
22-Dec-20 21:48 33.707012 -117.077944 92 8989ft 260kts
22-Dec-20 21:49 33.699852 -116.991262 92 8989ft 260kts
22-Dec-20 21:50 33.692364 -116.901326 93 8990ft 259kts
22-Dec-20 21:51 33.684700 -116.810136 93 9032ft 258kts
22-Dec-20 21:52 33.676943 -116.718709 94 9011ft 259kts
22-Dec-20 21:53 33.669114 -116.627239 94 8991ft 253kts
22-Dec-20 21:54 33.662119 -116.540908 87 8661ft 236kts
22-Dec-20 21:55 33.668744 -116.458403 75 6537ft 230kts
22-Dec-20 21:56 33.701993 -116.387714 48 4357ft 221kts
22-Dec-20 21:57 33.751633 -116.368706 300 2126ft 207kts
22-Dec-20 21:58 33.769922 -116.427257 284 1523ft 145kts
22-Dec-20 21:59 33.790276 -116.471439 315 1081ft 130kts
22-Dec-20 22:00 33.815696 -116.495043 323 541ft 86kts
22-Dec-20 22:01 33.828381 -116.506933 255 424ft 14kts
22-Dec-20 22:02 33.827407 -116.507180 179 422ft 4kts
22-Dec-20 22:03 33.825351 -116.507866 268 417ft 8kts
22-Dec-20 22:04 33.825782 -116.509475 356 421ft 0kts
22-Dec-20 22:05 33.825782 -116.509475 356 421ft 0kts
22-Dec-20 22:06 33.825782 -116.509475 356 421ft 0kts
22-Dec-20 22:07 33.825782 -116.509475 356 421ft 0kts

Navigation Log

Ident Type
Flight plan parsing failed, navigation log unavailable